Fort Madison Municipal Airport

About
Name: Fort Madison Municipal Airport
Identifier:  FMS/KFSW
Local Time:  25. Aug 03:52 CDT
Location
Fort Madison
  United States

Flights per Day
0 flights
Distance: 161km (100mi)
Punctuality
75% (0 flights per day delayed)
Delay Average: 30 minutes
Current Weather
 17 C (Humidity: 82%)
  4kt (7km/h / 4mph) from 100°
  Overcast at 10,000 feet (3,048 meter)
  16km (10 mi.)
 METAR KFSW 250835Z AUTO 10004KT 10SM OVC100 17/14 A3007 RMK AO2

Current Flights

Departures
Number Departure To Airline
Arrivals
Number Arrival From Airline

Current Delays

Departures
N/A
Arrivals
N/A

Destinations

Top Destinations
Airport Flights
per week
Seats
per week
  Waterloo (ALO) 1 - 0 0
  Kaiser/Lake Ozark (AIZ) 0 - 0 0
  Quincy (UIN) 0 - 0 0
  Dallas (DFW) 0 - 0 0
  Iowa City (IOW) 0 - 0 0
  Sioux Falls (FSD) 0 - 0 0
  Evansville (EVV) 0 - 0 0
  Des Moines (DSM) 0 - 0 0
  Cedar Rapids (CID) 0 - 0 0
  Davenport (DVN) 0 - 0 0

Airlines & Planes

Top Airlines
Airline Flights
per Day
Seats
per Day
  Flybe Nordic 0 -
Nordwind Airlines 0 -
Jet Charter Inc ( Franklin Lakes Nj ) 0 -
  Novair 0 -
Top Plane Types
Model Flights Seats
Cirrus SR22 0.3/day - 0
Pilatus PC-12 0.3/day - 0
Beech B200 Super King Air 0.2/day - 0